sensor_id;sensor_type;location;lat;lon;timestamp;P1;durP1;ratioP1;P2;durP2;ratioP2
13421;SDS011;6782;55.904;13.396;2023-05-31T00:01:03;4.22;;;2.72;;
13421;SDS011;6782;55.904;13.396;2023-05-31T00:03:50;4.00;;;2.67;;
13421;SDS011;6782;55.904;13.396;2023-05-31T00:06:38;3.90;;;2.80;;
13421;SDS011;6782;55.904;13.396;2023-05-31T00:09:25;3.30;;;2.60;;
13421;SDS011;6782;55.904;13.396;2023-05-31T00:12:14;3.65;;;2.78;;
13421;SDS011;6782;55.904;13.396;2023-05-31T00:15:01;4.50;;;3.00;;
13421;SDS011;6782;55.904;13.396;2023-05-31T00:17:48;3.53;;;2.90;;
13421;SDS011;6782;55.904;13.396;2023-05-31T00:20:35;3.88;;;3.20;;
13421;SDS011;6782;55.904;13.396;2023-05-31T00:23:22;4.22;;;2.78;;
13421;SDS011;6782;55.904;13.396;2023-05-31T00:26:10;4.47;;;3.30;;
13421;SDS011;6782;55.904;13.396;2023-05-31T00:28:58;5.78;;;3.38;;
13421;SDS011;6782;55.904;13.396;2023-05-31T00:31:46;4.90;;;3.33;;
13421;SDS011;6782;55.904;13.396;2023-05-31T00:34:33;3.38;;;3.00;;
13421;SDS011;6782;55.904;13.396;2023-05-31T00:37:20;4.72;;;3.40;;
13421;SDS011;6782;55.904;13.396;2023-05-31T00:40:07;5.22;;;3.45;;
13421;SDS011;6782;55.904;13.396;2023-05-31T00:42:55;5.18;;;3.42;;
13421;SDS011;6782;55.904;13.396;2023-05-31T00:45:44;5.38;;;3.65;;
13421;SDS011;6782;55.904;13.396;2023-05-31T00:48:32;5.43;;;3.30;;
13421;SDS011;6782;55.904;13.396;2023-05-31T00:51:20;5.00;;;3.63;;
13421;SDS011;6782;55.904;13.396;2023-05-31T00:54:07;4.88;;;3.83;;
13421;SDS011;6782;55.904;13.396;2023-05-31T00:56:55;5.10;;;3.40;;
13421;SDS011;6782;55.904;13.396;2023-05-31T00:59:43;5.05;;;3.50;;
13421;SDS011;6782;55.904;13.396;2023-05-31T01:02:32;4.32;;;3.83;;
13421;SDS011;6782;55.904;13.396;2023-05-31T01:05:19;4.70;;;3.67;;
13421;SDS011;6782;55.904;13.396;2023-05-31T01:08:07;4.90;;;3.45;;
13421;SDS011;6782;55.904;13.396;2023-05-31T01:10:54;5.72;;;4.10;;
13421;SDS011;6782;55.904;13.396;2023-05-31T01:13:47;5.35;;;3.47;;
13421;SDS011;6782;55.904;13.396;2023-05-31T01:16:45;5.70;;;3.92;;
13421;SDS011;6782;55.904;13.396;2023-05-31T01:19:42;5.78;;;3.85;;
13421;SDS011;6782;55.904;13.396;2023-05-31T01:22:35;5.47;;;3.88;;
13421;SDS011;6782;55.904;13.396;2023-05-31T01:26:02;4.55;;;3.60;;
13421;SDS011;6782;55.904;13.396;2023-05-31T01:29:06;4.97;;;3.35;;
13421;SDS011;6782;55.904;13.396;2023-05-31T01:31:56;4.72;;;3.42;;
13421;SDS011;6782;55.904;13.396;2023-05-31T01:34:45;4.78;;;4.05;;
13421;SDS011;6782;55.904;13.396;2023-05-31T01:37:34;4.68;;;4.10;;
13421;SDS011;6782;55.904;13.396;2023-05-31T01:40:21;6.40;;;4.60;;
13421;SDS011;6782;55.904;13.396;2023-05-31T01:43:08;7.53;;;4.53;;
13421;SDS011;6782;55.904;13.396;2023-05-31T01:45:59;5.63;;;4.82;;
13421;SDS011;6782;55.904;13.396;2023-05-31T01:48:48;6.57;;;4.45;;
13421;SDS011;6782;55.904;13.396;2023-05-31T01:51:36;5.85;;;4.78;;
13421;SDS011;6782;55.904;13.396;2023-05-31T01:54:24;5.45;;;4.13;;
13421;SDS011;6782;55.904;13.396;2023-05-31T01:57:11;7.22;;;4.68;;
13421;SDS011;6782;55.904;13.396;2023-05-31T02:00:00;5.22;;;4.75;;
13421;SDS011;6782;55.904;13.396;2023-05-31T02:02:51;6.32;;;4.35;;
13421;SDS011;6782;55.904;13.396;2023-05-31T02:05:53;4.93;;;4.43;;
13421;SDS011;6782;55.904;13.396;2023-05-31T02:08:41;5.63;;;5.00;;
13421;SDS011;6782;55.904;13.396;2023-05-31T02:11:28;5.22;;;4.72;;
13421;SDS011;6782;55.904;13.396;2023-05-31T02:14:15;6.90;;;4.63;;
13421;SDS011;6782;55.904;13.396;2023-05-31T02:17:02;6.13;;;4.60;;
13421;SDS011;6782;55.904;13.396;2023-05-31T02:19:51;5.90;;;5.05;;
13421;SDS011;6782;55.904;13.396;2023-05-31T02:22:39;6.77;;;5.37;;
13421;SDS011;6782;55.904;13.396;2023-05-31T02:25:27;7.00;;;4.77;;
13421;SDS011;6782;55.904;13.396;2023-05-31T02:28:14;6.07;;;5.22;;
13421;SDS011;6782;55.904;13.396;2023-05-31T02:31:02;6.23;;;4.70;;
13421;SDS011;6782;55.904;13.396;2023-05-31T02:33:49;5.68;;;5.18;;
13421;SDS011;6782;55.904;13.396;2023-05-31T02:36:37;5.80;;;5.07;;
13421;SDS011;6782;55.904;13.396;2023-05-31T02:39:25;8.67;;;5.70;;
13421;SDS011;6782;55.904;13.396;2023-05-31T02:42:12;5.83;;;5.20;;
13421;SDS011;6782;55.904;13.396;2023-05-31T02:45:00;7.30;;;5.07;;
13421;SDS011;6782;55.904;13.396;2023-05-31T02:47:47;5.80;;;5.17;;
13421;SDS011;6782;55.904;13.396;2023-05-31T02:50:34;6.50;;;5.18;;
13421;SDS011;6782;55.904;13.396;2023-05-31T02:53:23;7.68;;;5.25;;
13421;SDS011;6782;55.904;13.396;2023-05-31T02:56:12;7.68;;;5.10;;
13421;SDS011;6782;55.904;13.396;2023-05-31T02:58:59;7.20;;;5.10;;
13421;SDS011;6782;55.904;13.396;2023-05-31T03:01:46;6.30;;;5.10;;
13421;SDS011;6782;55.904;13.396;2023-05-31T03:04:34;5.68;;;4.82;;
13421;SDS011;6782;55.904;13.396;2023-05-31T03:07:21;5.75;;;4.25;;
13421;SDS011;6782;55.904;13.396;2023-05-31T03:10:10;7.03;;;4.70;;
13421;SDS011;6782;55.904;13.396;2023-05-31T03:12:57;6.38;;;4.78;;
13421;SDS011;6782;55.904;13.396;2023-05-31T03:15:44;8.27;;;4.80;;
13421;SDS011;6782;55.904;13.396;2023-05-31T03:18:32;4.65;;;4.25;;
13421;SDS011;6782;55.904;13.396;2023-05-31T03:21:19;5.47;;;4.65;;
13421;SDS011;6782;55.904;13.396;2023-05-31T03:24:06;5.63;;;5.00;;
13421;SDS011;6782;55.904;13.396;2023-05-31T03:26:55;6.47;;;5.00;;
13421;SDS011;6782;55.904;13.396;2023-05-31T03:29:42;5.40;;;4.53;;
13421;SDS011;6782;55.904;13.396;2023-05-31T03:32:29;5.50;;;4.50;;
13421;SDS011;6782;55.904;13.396;2023-05-31T03:35:16;7.93;;;4.05;;
13421;SDS011;6782;55.904;13.396;2023-05-31T03:38:04;6.68;;;4.47;;
13421;SDS011;6782;55.904;13.396;2023-05-31T03:40:51;4.93;;;4.20;;
13421;SDS011;6782;55.904;13.396;2023-05-31T03:43:39;6.28;;;4.72;;
13421;SDS011;6782;55.904;13.396;2023-05-31T03:46:26;4.57;;;3.90;;
13421;SDS011;6782;55.904;13.396;2023-05-31T03:49:14;7.15;;;4.05;;
13421;SDS011;6782;55.904;13.396;2023-05-31T03:52:01;6.22;;;4.40;;
13421;SDS011;6782;55.904;13.396;2023-05-31T03:54:48;4.93;;;3.55;;
13421;SDS011;6782;55.904;13.396;2023-05-31T03:57:35;6.22;;;4.25;;
13421;SDS011;6782;55.904;13.396;2023-05-31T04:00:24;6.18;;;4.10;;
13421;SDS011;6782;55.904;13.396;2023-05-31T04:03:11;6.97;;;4.20;;
13421;SDS011;6782;55.904;13.396;2023-05-31T04:05:59;6.20;;;4.13;;
13421;SDS011;6782;55.904;13.396;2023-05-31T04:08:47;5.30;;;3.63;;
13421;SDS011;6782;55.904;13.396;2023-05-31T04:11:34;5.28;;;3.72;;
13421;SDS011;6782;55.904;13.396;2023-05-31T04:14:21;4.82;;;3.78;;
13421;SDS011;6782;55.904;13.396;2023-05-31T04:17:10;4.57;;;4.18;;
13421;SDS011;6782;55.904;13.396;2023-05-31T04:19:57;7.15;;;4.20;;
13421;SDS011;6782;55.904;13.396;2023-05-31T04:22:44;4.60;;;3.40;;
13421;SDS011;6782;55.904;13.396;2023-05-31T04:25:31;6.90;;;4.05;;
13421;SDS011;6782;55.904;13.396;2023-05-31T04:28:18;7.38;;;3.72;;
13421;SDS011;6782;55.904;13.396;2023-05-31T04:31:06;6.57;;;3.45;;
13421;SDS011;6782;55.904;13.396;2023-05-31T04:33:54;5.30;;;3.65;;
13421;SDS011;6782;55.904;13.396;2023-05-31T04:36:42;4.40;;;3.20;;
13421;SDS011;6782;55.904;13.396;2023-05-31T04:39:29;4.43;;;3.65;;
13421;SDS011;6782;55.904;13.396;2023-05-31T04:42:16;7.88;;;4.10;;
13421;SDS011;6782;55.904;13.396;2023-05-31T04:45:04;5.90;;;3.40;;
13421;SDS011;6782;55.904;13.396;2023-05-31T04:47:53;7.82;;;4.07;;
13421;SDS011;6782;55.904;13.396;2023-05-31T04:50:42;4.60;;;3.25;;
13421;SDS011;6782;55.904;13.396;2023-05-31T04:53:29;6.47;;;3.72;;
13421;SDS011;6782;55.904;13.396;2023-05-31T04:56:16;6.82;;;3.90;;
13421;SDS011;6782;55.904;13.396;2023-05-31T04:59:04;6.40;;;3.58;;
13421;SDS011;6782;55.904;13.396;2023-05-31T05:01:53;7.90;;;4.07;;
13421;SDS011;6782;55.904;13.396;2023-05-31T05:04:40;5.80;;;3.78;;
13421;SDS011;6782;55.904;13.396;2023-05-31T05:07:28;8.20;;;4.03;;
13421;SDS011;6782;55.904;13.396;2023-05-31T05:10:16;7.97;;;4.07;;
13421;SDS011;6782;55.904;13.396;2023-05-31T05:13:03;6.25;;;4.03;;
13421;SDS011;6782;55.904;13.396;2023-05-31T05:15:51;5.93;;;3.72;;
13421;SDS011;6782;55.904;13.396;2023-05-31T05:18:38;8.32;;;3.92;;
13421;SDS011;6782;55.904;13.396;2023-05-31T05:21:26;7.93;;;4.30;;
13421;SDS011;6782;55.904;13.396;2023-05-31T05:24:16;6.25;;;3.97;;
13421;SDS011;6782;55.904;13.396;2023-05-31T05:27:03;6.22;;;3.67;;
13421;SDS011;6782;55.904;13.396;2023-05-31T05:29:51;7.45;;;4.18;;
13421;SDS011;6782;55.904;13.396;2023-05-31T05:32:38;6.90;;;4.07;;
13421;SDS011;6782;55.904;13.396;2023-05-31T05:35:25;9.07;;;4.38;;
13421;SDS011;6782;55.904;13.396;2023-05-31T05:38:13;8.68;;;4.32;;
13421;SDS011;6782;55.904;13.396;2023-05-31T05:41:02;8.23;;;4.35;;
13421;SDS011;6782;55.904;13.396;2023-05-31T05:43:50;7.68;;;4.18;;
13421;SDS011;6782;55.904;13.396;2023-05-31T05:46:38;6.47;;;3.95;;
13421;SDS011;6782;55.904;13.396;2023-05-31T05:49:25;5.63;;;3.80;;
13421;SDS011;6782;55.904;13.396;2023-05-31T05:52:12;5.97;;;4.07;;
13421;SDS011;6782;55.904;13.396;2023-05-31T05:54:59;6.82;;;3.92;;
13421;SDS011;6782;55.904;13.396;2023-05-31T05:57:48;10.77;;;3.92;;
13421;SDS011;6782;55.904;13.396;2023-05-31T06:00:36;6.97;;;4.28;;
13421;SDS011;6782;55.904;13.396;2023-05-31T06:03:25;7.03;;;4.15;;
13421;SDS011;6782;55.904;13.396;2023-05-31T06:06:13;5.85;;;4.07;;
13421;SDS011;6782;55.904;13.396;2023-05-31T06:09:02;8.18;;;4.22;;
13421;SDS011;6782;55.904;13.396;2023-05-31T06:11:49;7.88;;;4.63;;
13421;SDS011;6782;55.904;13.396;2023-05-31T06:14:39;10.27;;;3.85;;
13421;SDS011;6782;55.904;13.396;2023-05-31T06:17:26;6.57;;;3.58;;
13421;SDS011;6782;55.904;13.396;2023-05-31T06:20:13;6.80;;;3.90;;
13421;SDS011;6782;55.904;13.396;2023-05-31T06:23:01;7.30;;;3.63;;
13421;SDS011;6782;55.904;13.396;2023-05-31T06:25:48;11.77;;;4.70;;
13421;SDS011;6782;55.904;13.396;2023-05-31T06:28:36;5.90;;;3.50;;
13421;SDS011;6782;55.904;13.396;2023-05-31T06:31:25;4.30;;;3.17;;
13421;SDS011;6782;55.904;13.396;2023-05-31T06:34:12;6.05;;;3.55;;
13421;SDS011;6782;55.904;13.396;2023-05-31T06:36:59;4.15;;;3.00;;
13421;SDS011;6782;55.904;13.396;2023-05-31T06:39:47;4.38;;;2.85;;
13421;SDS011;6782;55.904;13.396;2023-05-31T06:42:34;7.13;;;2.47;;
13421;SDS011;6782;55.904;13.396;2023-05-31T06:45:21;3.90;;;2.55;;
13421;SDS011;6782;55.904;13.396;2023-05-31T06:48:10;5.30;;;2.60;;
13421;SDS011;6782;55.904;13.396;2023-05-31T06:50:57;5.45;;;2.28;;
13421;SDS011;6782;55.904;13.396;2023-05-31T06:53:44;4.90;;;2.47;;
13421;SDS011;6782;55.904;13.396;2023-05-31T06:56:31;5.32;;;2.45;;
13421;SDS011;6782;55.904;13.396;2023-05-31T06:59:19;6.90;;;2.33;;
13421;SDS011;6782;55.904;13.396;2023-05-31T07:02:06;4.93;;;2.08;;
13421;SDS011;6782;55.904;13.396;2023-05-31T07:04:55;8.00;;;2.15;;
13421;SDS011;6782;55.904;13.396;2023-05-31T07:07:42;2.50;;;1.77;;
13421;SDS011;6782;55.904;13.396;2023-05-31T07:10:29;3.65;;;1.92;;
13421;SDS011;6782;55.904;13.396;2023-05-31T07:13:17;4.68;;;1.70;;
13421;SDS011;6782;55.904;13.396;2023-05-31T07:16:04;3.78;;;2.03;;
13421;SDS011;6782;55.904;13.396;2023-05-31T07:18:53;3.90;;;2.08;;
13421;SDS011;6782;55.904;13.396;2023-05-31T07:21:41;5.40;;;1.73;;
13421;SDS011;6782;55.904;13.396;2023-05-31T07:24:28;3.42;;;2.00;;
13421;SDS011;6782;55.904;13.396;2023-05-31T07:27:16;3.90;;;2.00;;
13421;SDS011;6782;55.904;13.396;2023-05-31T07:30:03;3.10;;;2.10;;
13421;SDS011;6782;55.904;13.396;2023-05-31T07:32:51;3.92;;;1.98;;
13421;SDS011;6782;55.904;13.396;2023-05-31T07:35:38;4.28;;;2.00;;
13421;SDS011;6782;55.904;13.396;2023-05-31T07:38:27;3.53;;;1.80;;
13421;SDS011;6782;55.904;13.396;2023-05-31T07:41:15;3.60;;;1.80;;
13421;SDS011;6782;55.904;13.396;2023-05-31T07:44:02;3.75;;;1.73;;
13421;SDS011;6782;55.904;13.396;2023-05-31T07:46:50;4.75;;;1.73;;
13421;SDS011;6782;55.904;13.396;2023-05-31T07:49:38;2.30;;;1.65;;
13421;SDS011;6782;55.904;13.396;2023-05-31T07:52:25;2.67;;;1.65;;
13421;SDS011;6782;55.904;13.396;2023-05-31T07:55:14;4.50;;;1.77;;
13421;SDS011;6782;55.904;13.396;2023-05-31T07:58:01;2.45;;;1.40;;
13421;SDS011;6782;55.904;13.396;2023-05-31T08:00:48;4.07;;;1.60;;
13421;SDS011;6782;55.904;13.396;2023-05-31T08:03:40;4.45;;;1.50;;
13421;SDS011;6782;55.904;13.396;2023-05-31T08:06:27;3.45;;;1.27;;
13421;SDS011;6782;55.904;13.396;2023-05-31T08:09:15;2.67;;;1.60;;
13421;SDS011;6782;55.904;13.396;2023-05-31T08:12:04;4.43;;;1.77;;
13421;SDS011;6782;55.904;13.396;2023-05-31T08:14:53;3.15;;;1.80;;
13421;SDS011;6782;55.904;13.396;2023-05-31T08:17:40;1.80;;;1.40;;
13421;SDS011;6782;55.904;13.396;2023-05-31T08:20:28;2.60;;;1.60;;
13421;SDS011;6782;55.904;13.396;2023-05-31T08:23:18;3.72;;;1.50;;
13421;SDS011;6782;55.904;13.396;2023-05-31T08:26:06;2.95;;;1.40;;
13421;SDS011;6782;55.904;13.396;2023-05-31T08:28:55;2.78;;;1.40;;
13421;SDS011;6782;55.904;13.396;2023-05-31T08:31:42;2.72;;;1.70;;
13421;SDS011;6782;55.904;13.396;2023-05-31T08:34:29;2.40;;;1.60;;
13421;SDS011;6782;55.904;13.396;2023-05-31T08:37:16;3.30;;;1.52;;
13421;SDS011;6782;55.904;13.396;2023-05-31T08:40:05;2.75;;;2.22;;
13421;SDS011;6782;55.904;13.396;2023-05-31T08:42:55;1.58;;;1.20;;
13421;SDS011;6782;55.904;13.396;2023-05-31T08:45:48;3.65;;;1.50;;
13421;SDS011;6782;55.904;13.396;2023-05-31T08:48:37;2.78;;;1.50;;
13421;SDS011;6782;55.904;13.396;2023-05-31T08:51:28;2.60;;;1.60;;
13421;SDS011;6782;55.904;13.396;2023-05-31T08:54:16;1.83;;;1.48;;
13421;SDS011;6782;55.904;13.396;2023-05-31T08:57:03;2.95;;;1.70;;
13421;SDS011;6782;55.904;13.396;2023-05-31T08:59:52;3.55;;;1.30;;
13421;SDS011;6782;55.904;13.396;2023-05-31T09:02:41;2.30;;;1.48;;
13421;SDS011;6782;55.904;13.396;2023-05-31T09:05:28;2.25;;;1.23;;
13421;SDS011;6782;55.904;13.396;2023-05-31T09:08:15;1.23;;;1.10;;
13421;SDS011;6782;55.904;13.396;2023-05-31T09:11:02;2.45;;;1.17;;
13421;SDS011;6782;55.904;13.396;2023-05-31T09:13:51;1.48;;;1.15;;
13421;SDS011;6782;55.904;13.396;2023-05-31T09:16:38;5.55;;;1.23;;
13421;SDS011;6782;55.904;13.396;2023-05-31T09:19:29;1.98;;;1.20;;
13421;SDS011;6782;55.904;13.396;2023-05-31T09:22:16;2.70;;;1.08;;
13421;SDS011;6782;55.904;13.396;2023-05-31T09:25:04;2.88;;;1.30;;
13421;SDS011;6782;55.904;13.396;2023-05-31T09:27:52;1.30;;;1.20;;
13421;SDS011;6782;55.904;13.396;2023-05-31T09:30:40;1.52;;;1.05;;
13421;SDS011;6782;55.904;13.396;2023-05-31T09:33:35;2.05;;;1.20;;
13421;SDS011;6782;55.904;13.396;2023-05-31T09:36:26;3.35;;;1.30;;
13421;SDS011;6782;55.904;13.396;2023-05-31T09:39:15;2.35;;;1.65;;
13421;SDS011;6782;55.904;13.396;2023-05-31T09:42:04;3.25;;;1.48;;
13421;SDS011;6782;55.904;13.396;2023-05-31T09:44:58;2.80;;;1.52;;
13421;SDS011;6782;55.904;13.396;2023-05-31T09:47:49;4.18;;;1.50;;
13421;SDS011;6782;55.904;13.396;2023-05-31T09:50:37;2.05;;;1.55;;
13421;SDS011;6782;55.904;13.396;2023-05-31T09:53:27;3.42;;;1.70;;
13421;SDS011;6782;55.904;13.396;2023-05-31T09:56:17;1.98;;;1.70;;
13421;SDS011;6782;55.904;13.396;2023-05-31T09:59:06;2.45;;;1.58;;
13421;SDS011;6782;55.904;13.396;2023-05-31T10:01:54;2.13;;;1.70;;
13421;SDS011;6782;55.904;13.396;2023-05-31T10:04:41;4.90;;;1.90;;
13421;SDS011;6782;55.904;13.396;2023-05-31T10:07:29;3.63;;;2.15;;
13421;SDS011;6782;55.904;13.396;2023-05-31T10:10:19;3.70;;;2.17;;
13421;SDS011;6782;55.904;13.396;2023-05-31T10:13:06;5.22;;;2.10;;
13421;SDS011;6782;55.904;13.396;2023-05-31T10:16:00;5.82;;;2.80;;
13421;SDS011;6782;55.904;13.396;2023-05-31T10:18:52;6.38;;;3.05;;
13421;SDS011;6782;55.904;13.396;2023-05-31T10:21:45;4.57;;;3.00;;
13421;SDS011;6782;55.904;13.396;2023-05-31T10:24:36;5.03;;;3.17;;
13421;SDS011;6782;55.904;13.396;2023-05-31T10:27:29;7.55;;;2.92;;
13421;SDS011;6782;55.904;13.396;2023-05-31T10:30:24;6.93;;;3.08;;
13421;SDS011;6782;55.904;13.396;2023-05-31T10:33:14;5.05;;;3.13;;
13421;SDS011;6782;55.904;13.396;2023-05-31T10:36:04;6.40;;;3.47;;
13421;SDS011;6782;55.904;13.396;2023-05-31T10:38:54;6.32;;;3.45;;
13421;SDS011;6782;55.904;13.396;2023-05-31T10:41:45;8.00;;;3.63;;
13421;SDS011;6782;55.904;13.396;2023-05-31T10:44:39;6.35;;;3.42;;
13421;SDS011;6782;55.904;13.396;2023-05-31T10:47:33;5.22;;;3.20;;
13421;SDS011;6782;55.904;13.396;2023-05-31T10:50:23;6.18;;;3.63;;
13421;SDS011;6782;55.904;13.396;2023-05-31T10:53:11;6.43;;;4.10;;
13421;SDS011;6782;55.904;13.396;2023-05-31T10:56:00;6.22;;;3.70;;
13421;SDS011;6782;55.904;13.396;2023-05-31T10:58:50;6.32;;;4.05;;
13421;SDS011;6782;55.904;13.396;2023-05-31T11:01:39;5.55;;;3.80;;
13421;SDS011;6782;55.904;13.396;2023-05-31T11:04:26;6.65;;;3.88;;
13421;SDS011;6782;55.904;13.396;2023-05-31T11:07:13;6.90;;;3.60;;
13421;SDS011;6782;55.904;13.396;2023-05-31T11:10:03;9.88;;;4.55;;
13421;SDS011;6782;55.904;13.396;2023-05-31T11:12:57;5.50;;;4.13;;
13421;SDS011;6782;55.904;13.396;2023-05-31T11:15:49;5.72;;;3.67;;
13421;SDS011;6782;55.904;13.396;2023-05-31T11:18:41;6.13;;;3.63;;
13421;SDS011;6782;55.904;13.396;2023-05-31T11:21:50;8.20;;;4.47;;
13421;SDS011;6782;55.904;13.396;2023-05-31T11:24:38;5.05;;;3.75;;
13421;SDS011;6782;55.904;13.396;2023-05-31T11:27:36;7.15;;;4.03;;
13421;SDS011;6782;55.904;13.396;2023-05-31T11:30:24;8.65;;;4.18;;
13421;SDS011;6782;55.904;13.396;2023-05-31T11:33:21;8.40;;;4.15;;
13421;SDS011;6782;55.904;13.396;2023-05-31T11:36:14;6.05;;;3.83;;
13421;SDS011;6782;55.904;13.396;2023-05-31T11:39:02;8.02;;;3.88;;
13421;SDS011;6782;55.904;13.396;2023-05-31T11:41:50;7.78;;;4.18;;
13421;SDS011;6782;55.904;13.396;2023-05-31T11:44:41;8.27;;;4.22;;
13421;SDS011;6782;55.904;13.396;2023-05-31T11:47:31;6.57;;;4.15;;
13421;SDS011;6782;55.904;13.396;2023-05-31T11:50:20;7.50;;;4.35;;
13421;SDS011;6782;55.904;13.396;2023-05-31T11:53:11;5.53;;;4.13;;
13421;SDS011;6782;55.904;13.396;2023-05-31T11:56:00;8.68;;;3.80;;
13421;SDS011;6782;55.904;13.396;2023-05-31T11:58:48;7.20;;;3.80;;
13421;SDS011;6782;55.904;13.396;2023-05-31T12:01:35;6.60;;;3.97;;
13421;SDS011;6782;55.904;13.396;2023-05-31T12:04:32;9.95;;;4.75;;
13421;SDS011;6782;55.904;13.396;2023-05-31T12:07:21;6.72;;;3.55;;
13421;SDS011;6782;55.904;13.396;2023-05-31T12:10:10;7.03;;;4.18;;
13421;SDS011;6782;55.904;13.396;2023-05-31T12:12:57;8.27;;;4.50;;
13421;SDS011;6782;55.904;13.396;2023-05-31T12:15:50;6.85;;;4.20;;
13421;SDS011;6782;55.904;13.396;2023-05-31T12:18:39;6.70;;;4.07;;
13421;SDS011;6782;55.904;13.396;2023-05-31T12:21:26;7.10;;;4.53;;
13421;SDS011;6782;55.904;13.396;2023-05-31T12:24:13;10.93;;;4.03;;
13421;SDS011;6782;55.904;13.396;2023-05-31T12:27:03;7.35;;;4.05;;
13421;SDS011;6782;55.904;13.396;2023-05-31T12:29:54;4.75;;;3.40;;
13421;SDS011;6782;55.904;13.396;2023-05-31T12:32:43;5.93;;;4.10;;
13421;SDS011;6782;55.904;13.396;2023-05-31T12:35:31;8.52;;;4.00;;
13421;SDS011;6782;55.904;13.396;2023-05-31T12:38:26;6.95;;;4.10;;
13421;SDS011;6782;55.904;13.396;2023-05-31T12:41:16;6.78;;;3.67;;
13421;SDS011;6782;55.904;13.396;2023-05-31T12:44:04;5.70;;;3.60;;
13421;SDS011;6782;55.904;13.396;2023-05-31T12:46:58;6.63;;;4.38;;
13421;SDS011;6782;55.904;13.396;2023-05-31T12:49:47;5.63;;;3.90;;
13421;SDS011;6782;55.904;13.396;2023-05-31T12:52:35;6.25;;;3.95;;
13421;SDS011;6782;55.904;13.396;2023-05-31T12:55:24;8.63;;;3.70;;
13421;SDS011;6782;55.904;13.396;2023-05-31T12:58:11;5.43;;;3.83;;
13421;SDS011;6782;55.904;13.396;2023-05-31T13:01:00;6.38;;;4.10;;
13421;SDS011;6782;55.904;13.396;2023-05-31T13:03:47;7.45;;;3.97;;
13421;SDS011;6782;55.904;13.396;2023-05-31T13:06:34;7.32;;;4.07;;
13421;SDS011;6782;55.904;13.396;2023-05-31T13:09:22;7.60;;;3.97;;
13421;SDS011;6782;55.904;13.396;2023-05-31T13:12:09;8.50;;;3.78;;
13421;SDS011;6782;55.904;13.396;2023-05-31T13:14:56;7.10;;;3.95;;
13421;SDS011;6782;55.904;13.396;2023-05-31T13:17:45;8.35;;;3.72;;
13421;SDS011;6782;55.904;13.396;2023-05-31T13:20:33;7.43;;;4.30;;
13421;SDS011;6782;55.904;13.396;2023-05-31T13:23:20;6.53;;;4.00;;
13421;SDS011;6782;55.904;13.396;2023-05-31T13:26:07;9.13;;;4.78;;
13421;SDS011;6782;55.904;13.396;2023-05-31T13:28:54;8.23;;;4.15;;
13421;SDS011;6782;55.904;13.396;2023-05-31T13:31:42;6.88;;;4.10;;
13421;SDS011;6782;55.904;13.396;2023-05-31T13:34:31;7.10;;;4.07;;
13421;SDS011;6782;55.904;13.396;2023-05-31T13:37:18;8.05;;;4.40;;
13421;SDS011;6782;55.904;13.396;2023-05-31T13:40:06;8.00;;;3.88;;
13421;SDS011;6782;55.904;13.396;2023-05-31T13:42:54;6.80;;;3.97;;
13421;SDS011;6782;55.904;13.396;2023-05-31T13:45:42;8.10;;;4.07;;
13421;SDS011;6782;55.904;13.396;2023-05-31T13:48:29;8.43;;;4.07;;
13421;SDS011;6782;55.904;13.396;2023-05-31T13:51:19;7.75;;;3.85;;
13421;SDS011;6782;55.904;13.396;2023-05-31T13:54:06;8.35;;;3.40;;
13421;SDS011;6782;55.904;13.396;2023-05-31T13:56:53;5.75;;;3.70;;
13421;SDS011;6782;55.904;13.396;2023-05-31T13:59:44;5.93;;;3.85;;
13421;SDS011;6782;55.904;13.396;2023-05-31T14:02:31;8.35;;;3.85;;
13421;SDS011;6782;55.904;13.396;2023-05-31T14:05:20;7.70;;;3.85;;
13421;SDS011;6782;55.904;13.396;2023-05-31T14:08:09;6.72;;;3.95;;
13421;SDS011;6782;55.904;13.396;2023-05-31T14:10:56;6.35;;;3.80;;
13421;SDS011;6782;55.904;13.396;2023-05-31T14:13:44;6.85;;;3.58;;
13421;SDS011;6782;55.904;13.396;2023-05-31T14:16:31;6.47;;;3.65;;
13421;SDS011;6782;55.904;13.396;2023-05-31T14:19:20;9.02;;;3.75;;
13421;SDS011;6782;55.904;13.396;2023-05-31T14:22:07;5.47;;;4.05;;
13421;SDS011;6782;55.904;13.396;2023-05-31T14:24:55;8.10;;;4.13;;
13421;SDS011;6782;55.904;13.396;2023-05-31T14:27:43;7.90;;;3.90;;
13421;SDS011;6782;55.904;13.396;2023-05-31T14:30:30;7.88;;;3.90;;
13421;SDS011;6782;55.904;13.396;2023-05-31T14:33:17;6.43;;;3.75;;
13421;SDS011;6782;55.904;13.396;2023-05-31T14:36:05;11.07;;;4.35;;
13421;SDS011;6782;55.904;13.396;2023-05-31T14:38:52;7.20;;;3.90;;
13421;SDS011;6782;55.904;13.396;2023-05-31T14:41:42;10.40;;;4.22;;
13421;SDS011;6782;55.904;13.396;2023-05-31T14:44:29;8.05;;;4.07;;
13421;SDS011;6782;55.904;13.396;2023-05-31T14:47:16;10.05;;;4.47;;
13421;SDS011;6782;55.904;13.396;2023-05-31T14:50:03;6.13;;;3.40;;
13421;SDS011;6782;55.904;13.396;2023-05-31T14:52:52;9.25;;;4.32;;
13421;SDS011;6782;55.904;13.396;2023-05-31T14:55:39;9.75;;;4.28;;
13421;SDS011;6782;55.904;13.396;2023-05-31T14:58:28;8.55;;;4.35;;
13421;SDS011;6782;55.904;13.396;2023-05-31T15:01:16;8.50;;;4.53;;
13421;SDS011;6782;55.904;13.396;2023-05-31T15:04:03;12.15;;;4.20;;
13421;SDS011;6782;55.904;13.396;2023-05-31T15:06:50;8.93;;;4.15;;
13421;SDS011;6782;55.904;13.396;2023-05-31T15:09:38;6.38;;;4.00;;
13421;SDS011;6782;55.904;13.396;2023-05-31T15:12:25;6.75;;;4.03;;
13421;SDS011;6782;55.904;13.396;2023-05-31T15:15:14;8.32;;;4.25;;
13421;SDS011;6782;55.904;13.396;2023-05-31T15:18:01;7.05;;;3.78;;
13421;SDS011;6782;55.904;13.396;2023-05-31T15:20:49;7.35;;;4.10;;
13421;SDS011;6782;55.904;13.396;2023-05-31T15:23:37;9.80;;;4.05;;
13421;SDS011;6782;55.904;13.396;2023-05-31T15:26:24;8.57;;;3.97;;
13421;SDS011;6782;55.904;13.396;2023-05-31T15:29:12;9.00;;;4.10;;
13421;SDS011;6782;55.904;13.396;2023-05-31T15:32:01;8.65;;;4.20;;
13421;SDS011;6782;55.904;13.396;2023-05-31T15:34:51;9.60;;;3.90;;
13421;SDS011;6782;55.904;13.396;2023-05-31T15:37:38;8.43;;;3.42;;
13421;SDS011;6782;55.904;13.396;2023-05-31T15:40:26;12.27;;;4.40;;
13421;SDS011;6782;55.904;13.396;2023-05-31T15:43:13;8.18;;;3.67;;
13421;SDS011;6782;55.904;13.396;2023-05-31T15:46:00;10.77;;;3.83;;
13421;SDS011;6782;55.904;13.396;2023-05-31T15:48:49;8.88;;;4.10;;
13421;SDS011;6782;55.904;13.396;2023-05-31T15:51:36;9.68;;;4.32;;
13421;SDS011;6782;55.904;13.396;2023-05-31T15:54:24;9.55;;;4.28;;
13421;SDS011;6782;55.904;13.396;2023-05-31T15:57:12;13.75;;;4.13;;
13421;SDS011;6782;55.904;13.396;2023-05-31T15:59:59;7.55;;;3.90;;
13421;SDS011;6782;55.904;13.396;2023-05-31T16:02:46;10.38;;;4.28;;
13421;SDS011;6782;55.904;13.396;2023-05-31T16:05:35;7.72;;;4.00;;
13421;SDS011;6782;55.904;13.396;2023-05-31T16:08:22;8.27;;;3.65;;
13421;SDS011;6782;55.904;13.396;2023-05-31T16:11:10;9.95;;;4.13;;
13421;SDS011;6782;55.904;13.396;2023-05-31T16:13:57;12.73;;;3.97;;
13421;SDS011;6782;55.904;13.396;2023-05-31T16:16:44;8.82;;;4.32;;
13421;SDS011;6782;55.904;13.396;2023-05-31T16:19:33;10.18;;;3.53;;
13421;SDS011;6782;55.904;13.396;2023-05-31T16:22:21;9.63;;;3.80;;
13421;SDS011;6782;55.904;13.396;2023-05-31T16:25:09;8.02;;;3.75;;
13421;SDS011;6782;55.904;13.396;2023-05-31T16:27:56;10.90;;;4.13;;
13421;SDS011;6782;55.904;13.396;2023-05-31T16:30:43;7.55;;;3.75;;
13421;SDS011;6782;55.904;13.396;2023-05-31T16:33:31;12.23;;;4.10;;
13421;SDS011;6782;55.904;13.396;2023-05-31T16:36:18;8.55;;;3.67;;
13421;SDS011;6782;55.904;13.396;2023-05-31T16:39:07;10.90;;;3.85;;
13421;SDS011;6782;55.904;13.396;2023-05-31T16:41:54;8.75;;;3.72;;
13421;SDS011;6782;55.904;13.396;2023-05-31T16:44:41;6.55;;;3.67;;
13421;SDS011;6782;55.904;13.396;2023-05-31T16:47:30;8.88;;;3.42;;
13421;SDS011;6782;55.904;13.396;2023-05-31T16:50:17;9.40;;;4.00;;
13421;SDS011;6782;55.904;13.396;2023-05-31T16:53:04;10.27;;;4.13;;
13421;SDS011;6782;55.904;13.396;2023-05-31T16:55:54;7.82;;;3.97;;